Flight Track Log - Related Links

Times and Time Zones

All times are in EDT time to prevent confusion due to time zone crossing. See the SWA34 flight status page for this flight to view local times or setup timezone preferences in your user account.

Time Position Orientation Groundspeed Altitude Reporting Facility
EDT Latitude Longitude Course Direction KTS MPH feet Rate Location/Type
Mon 03:49:23 PM 29.7061 -95.3350 331° Northwest 227 261 4,600  Level Houston Center
Mon 03:49:57 PM 29.7536 -95.3422 352° North 265 305 6,900 3,387 Climbing Houston Center
Mon 03:50:25 PM 29.7792 -95.3456 354° North 257 296 8,100 2,400 Climbing Houston Center
Mon 03:51:27 PM 29.8525 -95.3589 351° North 264 304 10,500 2,032 Climbing Houston Center
Mon 03:52:29 PM 29.9425 -95.3728 352° North 319 367 12,300 2,032 Climbing Houston Center
Mon 03:53:31 PM 30.0353 -95.3917 350° North 336 387 14,700 2,371 Climbing Houston Center
Mon 03:54:33 PM 30.1522 -95.4111 352° North 352 405 17,200 2,032 Climbing Houston Center
Mon 03:56:00 PM 30.2837 -95.4134 350° North  Level FlightAware Approximate
Mon 03:56:37 PM 30.3608 -95.4467 350° North 380 437 21,000  Level Houston Center
Mon 03:57:40 PM 30.4669 -95.4631 352° North 381 438 22,600 1,440 Climbing Houston Center
Mon 03:58:42 PM 30.5756 -95.4853 350° North 394 453 24,000 452 Climbing Houston Center
Mon 04:00:00 PM 30.6894 -95.5015 348° North  Level FlightAware Approximate
Mon 04:00:46 PM 30.8108 -95.5381 348° North 392 451 24,000  Level Houston Center
Mon 04:01:48 PM 30.9172 -95.5628 349° North 389 448 23,000 -968 Descending Houston Center
Mon 04:02:50 PM 31.0208 -95.5864 349° North 377 434 22,000 -375 Descending Houston Center
Mon 04:04:28 PM 31.1986 -95.6233 350° North 372 428 22,000  Level Fort Worth Center
Mon 04:05:28 PM 31.3011 -95.6483 348° North 372 428 22,000  Level Fort Worth Center
Mon 04:06:28 PM 31.4019 -95.6878 342° North 372 428 22,000  Level Fort Worth Center
Mon 04:07:28 PM 31.4925 -95.7542 328° Northwest 372 428 22,000  Level Fort Worth Center
Mon 04:08:28 PM 31.5831 -95.8111 332° Northwest 382 440 22,000  Level Fort Worth Center
Mon 04:10:05 PM 31.7192 -95.9047 330° Northwest 379 436 22,000  Level Houston Center
Mon 04:10:28 PM 31.7578 -95.9328 328° Northwest 382 440 22,000 -1,065 Level Fort Worth Center
Mon 04:13:11 PM 32.0119 -96.0950 332° Northwest 374 430 18,700  Descending Houston Center
Mon 04:13:28 PM 32.0375 -96.1169 324° Northwest 376 433 22,000 -2,107 Climbing Fort Worth Center
Mon 04:15:22 PM 32.2000 -96.2167 333° Northwest 339 390 14,100 -3,429 Descending Dallas / Fort Worth TRACON
Mon 04:16:16 PM 32.2667 -96.2667 328° Northwest 318 366 12,400 -1,947 Descending Dallas / Fort Worth TRACON
Mon 04:17:16 PM 32.3500 -96.3167 333° Northwest 308 354 10,400 -1,500 Descending Dallas / Fort Worth TRACON
Mon 04:18:16 PM 32.4167 -96.3667 328° Northwest 275 316 9,400 -1,050 Descending Dallas / Fort Worth TRACON
Mon 04:19:16 PM 32.4667 -96.4167 320° Northwest 248 285 8,300 -1,000 Descending Dallas / Fort Worth TRACON
Mon 04:20:16 PM 32.5167 -96.4667 320° Northwest 254 292 7,400 -950 Descending Dallas / Fort Worth TRACON
Mon 04:21:16 PM 32.5667 -96.5333 312° West 261 300 6,400 -1,300 Descending Dallas / Fort Worth TRACON
Mon 04:22:16 PM 32.6167 -96.5833 320° Northwest 262 302 4,800 -1,524 Descending Dallas / Fort Worth TRACON
Mon 04:23:22 PM 32.6833 -96.6667 314° West 263 303 3,200 -1,143 Descending Dallas / Fort Worth TRACON
Mon 04:24:22 PM 32.7333 -96.7167 320° Northwest 231 266 2,400 -500 Descending Dallas / Fort Worth TRACON
Mon 04:25:22 PM 32.7667 -96.7667 308° West 215 247 2,200 -516 Descending Dallas / Fort Worth TRACON
Mon 04:27:28 PM 32.8467 -96.8594 316° Northwest 190 219 800 6,387 Descending Fort Worth Center
Mon 04:28:28 PM 32.8825 -96.9014 315° West 190 219 22,000 21,200 Climbing Fort Worth Center

Login

Don't have an account? Register now (free) for customized features, flight alerts, and more!